WMT4KY LRTR-LROP
Flight info
| Callsign | WMT4KY |
|---|---|
| Flight time | N/A |
| Altitude | 35000 |
| Route | DITAX DCT LAMIT DCT TOSVI |
| Aircraft | A20N/M-SDE2E3FGHIRWXY/LB1 |
Departure
| Time | 2026-04-26 15:29 |
|---|---|
| Airport | Timișoara Traian Vuia International Airport (LRTR) |
Arrival
| Time | N/A |
|---|---|
| Airport | Bucharest Henri Coandă International Airport (LROP) |
| Time | Latitude | Longitude | Altitude | Speed | Heading |
|---|---|---|---|---|---|
| 2026-04-26 15:12 | 45.81168 | 21.32162 | 352 ft | 0 kts | 21° |
| 2026-04-26 15:21 | 45.81167 | 21.32162 | 352 ft | 1 kts | 21° |
| 2026-04-26 15:21 | 45.81151 | 21.32153 | 360 ft | 3 kts | 35° |
| 2026-04-26 15:21 | 45.81142 | 21.32126 | 361 ft | 3 kts | 103° |
| 2026-04-26 15:22 | 45.81151 | 21.32097 | 359 ft | 3 kts | 120° |
| 2026-04-26 15:22 | 45.81166 | 21.32076 | 355 ft | 3 kts | 167° |
| 2026-04-26 15:22 | 45.81187 | 21.32066 | 358 ft | 3 kts | 137° |
| 2026-04-26 15:22 | 45.81188 | 21.32064 | 358 ft | 0 kts | 135° |
| 2026-04-26 15:23 | 45.81188 | 21.32065 | 358 ft | 0 kts | 135° |
| 2026-04-26 15:24 | 45.81168 | 21.32114 | 359 ft | 10 kts | 104° |
| 2026-04-26 15:24 | 45.81134 | 21.32242 | 354 ft | 17 kts | 112° |
| 2026-04-26 15:24 | 45.81093 | 21.32429 | 355 ft | 22 kts | 105° |
| 2026-04-26 15:24 | 45.81064 | 21.32614 | 358 ft | 14 kts | 112° |
| 2026-04-26 15:25 | 45.81025 | 21.32778 | 355 ft | 26 kts | 109° |
| 2026-04-26 15:25 | 45.80987 | 21.32935 | 352 ft | 13 kts | 109° |
| 2026-04-26 15:25 | 45.80928 | 21.33164 | 352 ft | 22 kts | 109° |
| 2026-04-26 15:25 | 45.80877 | 21.33376 | 356 ft | 23 kts | 110° |
| 2026-04-26 15:26 | 45.80928 | 21.33539 | 352 ft | 17 kts | 19° |
| 2026-04-26 15:26 | 45.81021 | 21.33650 | 352 ft | 18 kts | 89° |
| 2026-04-26 15:26 | 45.80967 | 21.33865 | 359 ft | 28 kts | 109° |
| 2026-04-26 15:26 | 45.80891 | 21.34181 | 356 ft | 38 kts | 111° |
| 2026-04-26 15:27 | 45.80797 | 21.34527 | 350 ft | 36 kts | 105° |
| 2026-04-26 15:27 | 45.80726 | 21.34813 | 355 ft | 29 kts | 109° |
| 2026-04-26 15:27 | 45.80665 | 21.35087 | 358 ft | 24 kts | 104° |
| 2026-04-26 15:27 | 45.80600 | 21.35327 | 356 ft | 28 kts | 112° |
| 2026-04-26 15:28 | 45.80530 | 21.35591 | 356 ft | 28 kts | 109° |
| 2026-04-26 15:28 | 45.80515 | 21.35796 | 355 ft | 18 kts | 83° |
| 2026-04-26 15:28 | 45.80465 | 21.35870 | 356 ft | 9 kts | 223° |
| 2026-04-26 15:28 | 45.80472 | 21.35816 | 356 ft | 0 kts | 289° |
| 2026-04-26 15:29 | 45.80485 | 21.35764 | 359 ft | 35 kts | 289° |
| 2026-04-26 15:29 | 45.80700 | 21.34944 | 354 ft | 134 kts | 289° |
| 2026-04-26 15:29 | 45.81436 | 21.31762 | 1734 ft | 188 kts | 294° |
| 2026-04-26 15:30 | 45.82365 | 21.28120 | 4058 ft | 202 kts | 294° |
| 2026-04-26 15:30 | 45.82855 | 21.26206 | 5220 ft | 206 kts | 294° |
| 2026-04-26 15:30 | 45.83214 | 21.24151 | 6272 ft | 226 kts | 274° |
| 2026-04-26 15:31 | 45.82827 | 21.21785 | 6922 ft | 267 kts | 247° |
| 2026-04-26 15:31 | 45.79773 | 21.18458 | 7224 ft | 296 kts | 192° |
| 2026-04-26 15:31 | 45.77727 | 21.18600 | 7689 ft | 301 kts | 163° |
| 2026-04-26 15:32 | 45.74975 | 21.21592 | 8749 ft | 308 kts | 118° |
| 2026-04-26 15:32 | 45.73985 | 21.25405 | 9605 ft | 313 kts | 99° |
| 2026-04-26 15:32 | 45.73481 | 21.28478 | 10251 ft | 323 kts | 99° |
| 2026-04-26 15:33 | 45.72912 | 21.31722 | 10879 ft | 348 kts | 101° |
| 2026-04-26 15:33 | 45.72221 | 21.35157 | 11502 ft | 370 kts | 103° |
| 2026-04-26 15:33 | 45.71431 | 21.38719 | 12132 ft | 379 kts | 105° |
| 2026-04-26 15:33 | 45.70594 | 21.42319 | 12773 ft | 383 kts | 105° |
| 2026-04-26 15:34 | 45.69734 | 21.45956 | 13435 ft | 388 kts | 106° |
| 2026-04-26 15:34 | 45.68864 | 21.49625 | 14075 ft | 392 kts | 106° |
| 2026-04-26 15:34 | 45.67987 | 21.53322 | 14667 ft | 393 kts | 106° |
| 2026-04-26 15:34 | 45.67106 | 21.57037 | 15274 ft | 395 kts | 105° |
| 2026-04-26 15:35 | 45.66222 | 21.60765 | 15899 ft | 397 kts | 105° |
| 2026-04-26 15:35 | 45.65330 | 21.64520 | 16532 ft | 399 kts | 105° |
| 2026-04-26 15:35 | 45.64436 | 21.68285 | 17173 ft | 402 kts | 105° |
| 2026-04-26 15:35 | 45.63535 | 21.72075 | 17833 ft | 404 kts | 105° |
| 2026-04-26 15:36 | 45.62626 | 21.75894 | 18478 ft | 408 kts | 105° |
| 2026-04-26 15:36 | 45.61709 | 21.79744 | 19070 ft | 411 kts | 105° |
| 2026-04-26 15:36 | 45.60783 | 21.83626 | 19610 ft | 415 kts | 105° |
| 2026-04-26 15:36 | 45.59847 | 21.87540 | 20175 ft | 418 kts | 105° |
| 2026-04-26 15:37 | 45.58916 | 21.91430 | 20918 ft | 422 kts | 105° |
| 2026-04-26 15:37 | 45.57960 | 21.95419 | 21691 ft | 427 kts | 105° |
| 2026-04-26 15:37 | 45.56994 | 21.99440 | 22484 ft | 431 kts | 105° |
| 2026-04-26 15:37 | 45.56017 | 22.03502 | 23295 ft | 434 kts | 106° |
| 2026-04-26 15:38 | 45.55031 | 22.07592 | 24038 ft | 437 kts | 106° |
| 2026-04-26 15:38 | 45.54035 | 22.11716 | 24739 ft | 439 kts | 106° |
| 2026-04-26 15:38 | 45.53037 | 22.15839 | 25455 ft | 440 kts | 107° |
| 2026-04-26 15:38 | 45.52035 | 22.19975 | 26187 ft | 441 kts | 107° |
| 2026-04-26 15:39 | 45.51029 | 22.24117 | 26800 ft | 445 kts | 107° |
| 2026-04-26 15:39 | 45.50002 | 22.28348 | 27024 ft | 459 kts | 107° |
| 2026-04-26 15:39 | 45.48947 | 22.32680 | 27073 ft | 464 kts | 107° |
| 2026-04-26 15:39 | 45.48244 | 22.35558 | 27066 ft | 464 kts | 108° |
| 2026-04-26 15:40 | 45.46822 | 22.41369 | 27059 ft | 463 kts | 108° |
| 2026-04-26 15:40 | 45.45772 | 22.45646 | 27063 ft | 464 kts | 108° |
| 2026-04-26 15:40 | 45.44708 | 22.49979 | 27053 ft | 464 kts | 108° |
| 2026-04-26 15:40 | 45.43689 | 22.54328 | 27053 ft | 464 kts | 102° |
| 2026-04-26 15:41 | 45.42754 | 22.58728 | 27049 ft | 462 kts | 102° |
| 2026-04-26 15:41 | 45.41732 | 22.63076 | 27041 ft | 464 kts | 109° |
| 2026-04-26 15:41 | 45.40574 | 22.67367 | 27037 ft | 464 kts | 110° |
| 2026-04-26 15:41 | 45.39415 | 22.71639 | 27042 ft | 460 kts | 110° |
| 2026-04-26 15:42 | 45.38294 | 22.75902 | 27031 ft | 461 kts | 109° |
| 2026-04-26 15:42 | 45.37196 | 22.80201 | 27030 ft | 464 kts | 109° |
| 2026-04-26 15:42 | 45.36114 | 22.84506 | 27029 ft | 461 kts | 109° |
| 2026-04-26 15:42 | 45.35039 | 22.88813 | 27020 ft | 462 kts | 108° |
| 2026-04-26 15:43 | 45.33961 | 22.93135 | 27009 ft | 464 kts | 108° |
| 2026-04-26 15:43 | 45.32897 | 22.97392 | 27020 ft | 463 kts | 108° |
| 2026-04-26 15:43 | 45.30737 | 23.06006 | 27011 ft | 467 kts | 108° |
| 2026-04-26 15:44 | 45.29642 | 23.10356 | 27007 ft | 466 kts | 108° |
| 2026-04-26 15:44 | 45.27460 | 23.18994 | 27006 ft | 466 kts | 108° |
| 2026-04-26 15:44 | 45.26361 | 23.23334 | 27003 ft | 466 kts | 108° |
| 2026-04-26 15:45 | 45.24168 | 23.31969 | 26995 ft | 465 kts | 108° |
| 2026-04-26 15:45 | 45.23079 | 23.36248 | 26997 ft | 467 kts | 108° |
| 2026-04-26 15:46 | 45.20886 | 23.44834 | 26994 ft | 464 kts | 109° |
| 2026-04-26 15:46 | 45.19779 | 23.49151 | 26990 ft | 467 kts | 109° |
| 2026-04-26 15:46 | 45.18671 | 23.53467 | 26992 ft | 464 kts | 109° |
| 2026-04-26 15:46 | 45.18298 | 23.54918 | 26991 ft | 462 kts | 109° |
| 2026-04-26 15:47 | 45.16458 | 23.62064 | 26990 ft | 467 kts | 109° |
| 2026-04-26 15:47 | 45.14241 | 23.70644 | 26982 ft | 461 kts | 108° |
| 2026-04-26 15:47 | 45.13149 | 23.74857 | 26979 ft | 463 kts | 108° |
| 2026-04-26 15:48 | 45.12035 | 23.79148 | 26983 ft | 463 kts | 108° |
| 2026-04-26 15:48 | 45.10921 | 23.83429 | 26982 ft | 463 kts | 108° |
| 2026-04-26 15:48 | 45.09808 | 23.87705 | 26974 ft | 463 kts | 109° |
| 2026-04-26 15:48 | 45.08693 | 23.91972 | 26973 ft | 463 kts | 108° |
| 2026-04-26 15:49 | 45.07576 | 23.96246 | 26971 ft | 463 kts | 108° |
| 2026-04-26 15:49 | 45.06458 | 24.00512 | 26967 ft | 463 kts | 109° |
| 2026-04-26 15:49 | 45.05716 | 24.03340 | 26968 ft | 462 kts | 109° |
| 2026-04-26 15:49 | 45.04214 | 24.09056 | 26968 ft | 464 kts | 109° |
| 2026-04-26 15:50 | 45.03470 | 24.11882 | 26963 ft | 464 kts | 109° |
| 2026-04-26 15:50 | 45.01975 | 24.17547 | 26967 ft | 464 kts | 109° |
| 2026-04-26 15:50 | 45.01211 | 24.20441 | 26967 ft | 464 kts | 109° |
| 2026-04-26 15:50 | 45.00094 | 24.24662 | 26966 ft | 464 kts | 109° |
| 2026-04-26 15:51 | 44.98961 | 24.28931 | 26961 ft | 464 kts | 109° |
| 2026-04-26 15:51 | 44.97827 | 24.33196 | 26961 ft | 464 kts | 109° |
| 2026-04-26 15:51 | 44.96697 | 24.37441 | 26959 ft | 454 kts | 109° |
| 2026-04-26 15:51 | 44.95606 | 24.41523 | 26951 ft | 434 kts | 109° |
| 2026-04-26 15:52 | 44.94563 | 24.45423 | 26948 ft | 415 kts | 109° |
| 2026-04-26 15:52 | 44.93565 | 24.49150 | 26946 ft | 397 kts | 109° |
| 2026-04-26 15:52 | 44.92610 | 24.52710 | 26937 ft | 380 kts | 109° |
| 2026-04-26 15:52 | 44.92000 | 24.54986 | 26939 ft | 369 kts | 109° |
| 2026-04-26 15:53 | 44.90820 | 24.59381 | 26939 ft | 347 kts | 108° |
| 2026-04-26 15:53 | 44.89993 | 24.62458 | 26939 ft | 332 kts | 108° |
| 2026-04-26 15:53 | 44.89187 | 24.65449 | 26933 ft | 324 kts | 108° |
| 2026-04-26 15:53 | 44.88377 | 24.68467 | 26939 ft | 335 kts | 108° |
| 2026-04-26 15:54 | 44.87523 | 24.71650 | 26939 ft | 359 kts | 108° |
| 2026-04-26 15:54 | 44.86609 | 24.75050 | 26939 ft | 383 kts | 109° |
| 2026-04-26 15:54 | 44.85632 | 24.78663 | 26933 ft | 405 kts | 109° |
| 2026-04-26 15:54 | 44.84611 | 24.82425 | 26930 ft | 412 kts | 109° |
| 2026-04-26 15:55 | 44.83585 | 24.86187 | 26933 ft | 410 kts | 109° |
| 2026-04-26 15:55 | 44.82562 | 24.89934 | 26933 ft | 410 kts | 109° |
| 2026-04-26 15:55 | 44.81539 | 24.93677 | 26922 ft | 410 kts | 109° |
| 2026-04-26 15:55 | 44.80515 | 24.97421 | 26923 ft | 410 kts | 109° |
| 2026-04-26 15:56 | 44.79511 | 25.01181 | 26921 ft | 410 kts | 104° |
| 2026-04-26 15:56 | 44.78579 | 25.04969 | 26869 ft | 408 kts | 104° |
| 2026-04-26 15:56 | 44.77635 | 25.08729 | 26545 ft | 407 kts | 105° |
| 2026-04-26 15:56 | 44.76629 | 25.12440 | 25891 ft | 406 kts | 111° |
| 2026-04-26 15:57 | 44.75432 | 25.16034 | 25007 ft | 407 kts | 118° |
| 2026-04-26 15:57 | 44.73941 | 25.19383 | 24060 ft | 410 kts | 125° |
| 2026-04-26 15:57 | 44.72328 | 25.22696 | 23057 ft | 410 kts | 123° |
| 2026-04-26 15:57 | 44.71260 | 25.24962 | 22300 ft | 410 kts | 123° |
| 2026-04-26 15:58 | 44.69183 | 25.29452 | 20502 ft | 418 kts | 123° |
| 2026-04-26 15:58 | 44.67589 | 25.32923 | 19090 ft | 427 kts | 122° |
| 2026-04-26 15:58 | 44.65986 | 25.36414 | 18175 ft | 421 kts | 122° |
| 2026-04-26 15:58 | 44.64426 | 25.39807 | 17555 ft | 404 kts | 122° |
| 2026-04-26 15:59 | 44.62935 | 25.43044 | 17179 ft | 384 kts | 122° |
| 2026-04-26 15:59 | 44.61525 | 25.46102 | 16941 ft | 363 kts | 122° |
| 2026-04-26 15:59 | 44.60172 | 25.49034 | 16384 ft | 354 kts | 122° |
| 2026-04-26 15:59 | 44.58834 | 25.51930 | 15699 ft | 351 kts | 122° |
| 2026-04-26 16:00 | 44.57526 | 25.54756 | 15025 ft | 349 kts | 122° |
| 2026-04-26 16:00 | 44.56189 | 25.57640 | 14342 ft | 347 kts | 122° |
| 2026-04-26 16:00 | 44.54894 | 25.60431 | 13700 ft | 344 kts | 122° |
| 2026-04-26 16:00 | 44.53593 | 25.63230 | 13039 ft | 340 kts | 122° |
| 2026-04-26 16:01 | 44.52310 | 25.65991 | 12469 ft | 334 kts | 122° |
| 2026-04-26 16:01 | 44.51053 | 25.68694 | 11983 ft | 330 kts | 122° |
| 2026-04-26 16:01 | 44.49809 | 25.71380 | 11573 ft | 326 kts | 120° |
| 2026-04-26 16:01 | 44.48998 | 25.74305 | 11148 ft | 320 kts | 97° |
| 2026-04-26 16:02 | 44.48977 | 25.77356 | 10743 ft | 311 kts | 80° |
| 2026-04-26 16:02 | 44.49223 | 25.80361 | 10313 ft | 309 kts | 80° |
| 2026-04-26 16:02 | 44.49467 | 25.83337 | 9931 ft | 306 kts | 81° |
| 2026-04-26 16:02 | 44.49626 | 25.85300 | 9601 ft | 306 kts | 81° |
| 2026-04-26 16:03 | 44.49936 | 25.89222 | 8886 ft | 298 kts | 81° |
| 2026-04-26 16:03 | 44.50156 | 25.92076 | 8371 ft | 291 kts | 81° |
| 2026-04-26 16:03 | 44.50370 | 25.94867 | 7862 ft | 285 kts | 81° |
| 2026-04-26 16:03 | 44.50581 | 25.97603 | 7354 ft | 279 kts | 81° |
| 2026-04-26 16:04 | 44.50785 | 26.00274 | 7017 ft | 270 kts | 81° |
| 2026-04-26 16:04 | 44.50983 | 26.02855 | 6892 ft | 271 kts | 81° |
| 2026-04-26 16:04 | 44.51183 | 26.05482 | 6857 ft | 270 kts | 80° |
| 2026-04-26 16:04 | 44.51385 | 26.08098 | 6857 ft | 271 kts | 81° |
| 2026-04-26 16:05 | 44.51587 | 26.10724 | 6871 ft | 271 kts | 82° |
| 2026-04-26 16:05 | 44.51788 | 26.13360 | 6853 ft | 273 kts | 82° |
| 2026-04-26 16:05 | 44.51988 | 26.16022 | 6856 ft | 275 kts | 82° |
| 2026-04-26 16:05 | 44.52189 | 26.18710 | 6854 ft | 277 kts | 82° |
| 2026-04-26 16:06 | 44.52389 | 26.21376 | 6853 ft | 270 kts | 82° |
| 2026-04-26 16:06 | 44.52583 | 26.23998 | 6861 ft | 273 kts | 82° |
| 2026-04-26 16:06 | 44.52616 | 26.26649 | 6880 ft | 278 kts | 98° |
| 2026-04-26 16:06 | 44.51936 | 26.29167 | 6890 ft | 277 kts | 121° |
| 2026-04-26 16:07 | 44.50944 | 26.31476 | 6884 ft | 272 kts | 121° |
| 2026-04-26 16:07 | 44.49974 | 26.33745 | 6890 ft | 278 kts | 121° |
| 2026-04-26 16:07 | 44.48975 | 26.36100 | 6881 ft | 280 kts | 121° |
| 2026-04-26 16:07 | 44.47984 | 26.38447 | 6881 ft | 280 kts | 121° |
| 2026-04-26 16:08 | 44.47004 | 26.40768 | 6877 ft | 272 kts | 121° |
| 2026-04-26 16:08 | 44.46393 | 26.42299 | 6885 ft | 274 kts | 114° |
| 2026-04-26 16:08 | 44.45995 | 26.45759 | 6882 ft | 273 kts | 81° |
| 2026-04-26 16:08 | 44.46196 | 26.48420 | 6881 ft | 275 kts | 81° |
| 2026-04-26 16:09 | 44.46398 | 26.51081 | 6890 ft | 273 kts | 81° |
| 2026-04-26 16:09 | 44.46593 | 26.53704 | 6891 ft | 269 kts | 81° |
| 2026-04-26 16:09 | 44.46785 | 26.56338 | 6893 ft | 275 kts | 81° |
| 2026-04-26 16:09 | 44.46977 | 26.59002 | 6893 ft | 274 kts | 81° |
| 2026-04-26 16:10 | 44.47165 | 26.61634 | 6895 ft | 271 kts | 81° |
| 2026-04-26 16:10 | 44.47697 | 26.64106 | 6895 ft | 264 kts | 54° |
| 2026-04-26 16:10 | 44.48944 | 26.65893 | 6882 ft | 251 kts | 25° |
| 2026-04-26 16:10 | 44.50534 | 26.66559 | 6773 ft | 233 kts | 355° |
| 2026-04-26 16:11 | 44.52110 | 26.66304 | 6470 ft | 229 kts | 347° |
| 2026-04-26 16:11 | 44.53677 | 26.65959 | 6137 ft | 228 kts | 348° |
| 2026-04-26 16:11 | 44.55232 | 26.65655 | 5880 ft | 224 kts | 350° |
| 2026-04-26 16:11 | 44.56763 | 26.65398 | 5684 ft | 217 kts | 351° |
| 2026-04-26 16:12 | 44.58225 | 26.65153 | 5549 ft | 207 kts | 345° |
| 2026-04-26 16:12 | 44.59504 | 26.64261 | 5235 ft | 207 kts | 317° |
| 2026-04-26 16:12 | 44.60387 | 26.60563 | 4727 ft | 216 kts | 269° |
| 2026-04-26 16:13 | 44.60211 | 26.58449 | 4327 ft | 219 kts | 268° |
| 2026-04-26 16:13 | 44.60041 | 26.56316 | 4036 ft | 220 kts | 269° |
| 2026-04-26 16:13 | 44.59881 | 26.54175 | 3697 ft | 223 kts | 270° |
| 2026-04-26 16:13 | 44.59832 | 26.52007 | 3404 ft | 220 kts | 279° |
| 2026-04-26 16:14 | 44.59894 | 26.49870 | 3168 ft | 218 kts | 279° |
| 2026-04-26 16:14 | 44.59954 | 26.47754 | 2857 ft | 219 kts | 278° |
| 2026-04-26 16:14 | 44.60060 | 26.43534 | 2422 ft | 215 kts | 278° |
| 2026-04-26 16:15 | 44.60087 | 26.41400 | 2398 ft | 221 kts | 275° |
| 2026-04-26 16:15 | 44.59997 | 26.39212 | 2401 ft | 224 kts | 271° |
| 2026-04-26 16:15 | 44.59842 | 26.37062 | 2396 ft | 222 kts | 270° |
| 2026-04-26 16:16 | 44.59517 | 26.32769 | 2398 ft | 221 kts | 271° |
| 2026-04-26 16:16 | 44.59354 | 26.30654 | 2396 ft | 212 kts | 271° |
| 2026-04-26 16:16 | 44.59203 | 26.28674 | 2393 ft | 195 kts | 271° |
| 2026-04-26 16:16 | 44.59064 | 26.26829 | 2288 ft | 190 kts | 271° |
| 2026-04-26 16:17 | 44.58925 | 26.25006 | 2005 ft | 180 kts | 270° |
| 2026-04-26 16:17 | 44.58854 | 26.24133 | 1927 ft | 163 kts | 272° |
| 2026-04-26 16:17 | 44.58797 | 26.23399 | 1825 ft | 159 kts | 273° |
| 2026-04-26 16:18 | 44.58686 | 26.21847 | 1614 ft | 160 kts | 273° |
| 2026-04-26 16:18 | 44.58428 | 26.18702 | 1186 ft | 164 kts | 271° |
| 2026-04-26 16:19 | 44.58200 | 26.15339 | 683 ft | 188 kts | 265° |
| 2026-04-26 16:19 | 44.58075 | 26.13607 | 519 ft | 174 kts | 261° |
| 2026-04-26 16:19 | 44.57829 | 26.10726 | 329 ft | 177 kts | 266° |
| 2026-04-26 16:20 | 44.57711 | 26.08639 | 532 ft | 158 kts | 265° |